createdAt,value
2018-08-22T00:00:32.656Z,21.02
2018-08-22T00:02:25.478Z,21.03
2018-08-22T00:03:25.455Z,20.97
2018-08-22T00:05:18.270Z,20.90
2018-08-22T00:06:18.223Z,20.95
2018-08-22T00:08:11.051Z,20.93
2018-08-22T00:09:11.014Z,20.87
2018-08-22T00:11:03.832Z,20.87
2018-08-22T00:12:03.800Z,20.90
2018-08-22T00:13:56.618Z,20.88
2018-08-22T00:14:56.583Z,20.87
2018-08-22T00:16:49.381Z,20.75
2018-08-22T00:17:49.348Z,20.81
2018-08-22T00:19:42.178Z,20.78
2018-08-22T00:20:42.145Z,20.74
2018-08-22T00:22:35.049Z,20.78
2018-08-22T00:23:34.915Z,20.78
2018-08-22T00:25:27.802Z,20.69
2018-08-22T00:26:27.702Z,20.69
2018-08-22T00:28:20.550Z,20.65
2018-08-22T00:29:20.593Z,20.74
2018-08-22T00:31:13.301Z,20.75
2018-08-22T00:32:13.266Z,20.67
2018-08-22T00:34:06.094Z,20.67
2018-08-22T00:35:06.050Z,20.59
2018-08-22T00:36:58.870Z,20.67
2018-08-22T00:37:58.833Z,20.66
2018-08-22T00:39:51.659Z,20.62
2018-08-22T00:40:51.613Z,20.65
2018-08-22T00:42:44.424Z,20.55
2018-08-22T00:43:44.405Z,20.66
2018-08-22T00:45:37.234Z,20.65
2018-08-22T00:46:37.186Z,20.60
2018-08-22T00:48:29.995Z,20.59
2018-08-22T00:49:29.966Z,20.56
2018-08-22T00:51:22.784Z,20.44
2018-08-22T00:52:22.741Z,20.50
2018-08-22T00:54:15.550Z,20.50
2018-08-22T00:55:15.530Z,20.43
2018-08-22T00:57:08.351Z,20.55
2018-08-22T00:58:08.314Z,20.43
2018-08-22T01:00:01.120Z,20.39
2018-08-22T01:01:01.089Z,20.48
2018-08-22T01:02:53.912Z,20.39
2018-08-22T01:03:53.866Z,20.34
2018-08-22T01:05:46.692Z,20.43
2018-08-22T01:06:46.651Z,20.41
2018-08-22T01:08:39.488Z,20.34
2018-08-22T01:09:39.439Z,20.32
2018-08-22T01:11:32.268Z,20.31
2018-08-22T01:12:32.214Z,20.34
2018-08-22T01:14:25.033Z,20.29
2018-08-22T01:15:25.002Z,20.31
2018-08-22T01:17:17.825Z,20.40
2018-08-22T01:18:17.780Z,20.41
2018-08-22T01:20:10.596Z,20.36
2018-08-22T01:21:10.566Z,20.43
2018-08-22T01:23:03.401Z,20.43
2018-08-22T01:24:03.351Z,20.48
2018-08-22T01:25:56.160Z,20.44
2018-08-22T01:26:56.127Z,20.51
2018-08-22T01:28:48.951Z,20.41
2018-08-22T01:29:48.912Z,20.40
2018-08-22T01:31:41.718Z,20.41
2018-08-22T01:32:41.691Z,20.51
2018-08-22T01:34:34.523Z,20.41
2018-08-22T01:35:34.478Z,20.48
2018-08-22T01:37:27.313Z,20.52
2018-08-22T01:38:27.267Z,20.50
2018-08-22T01:40:20.078Z,20.51
2018-08-22T01:41:20.058Z,20.43
2018-08-22T01:43:12.875Z,20.44
2018-08-22T01:44:12.830Z,20.47
2018-08-22T01:46:05.637Z,20.43
2018-08-22T01:47:05.604Z,20.43
2018-08-22T01:48:58.442Z,20.48
2018-08-22T01:49:58.384Z,20.44
2018-08-22T01:51:51.199Z,20.43
2018-08-22T01:52:51.168Z,20.48
2018-08-22T01:54:44.011Z,20.40
2018-08-22T01:55:43.942Z,20.50
2018-08-22T01:57:36.764Z,20.47
2018-08-22T01:58:36.736Z,20.41
2018-08-22T02:00:29.547Z,20.50
2018-08-22T02:01:29.523Z,20.47
2018-08-22T02:03:22.336Z,20.41
2018-08-22T02:04:22.293Z,20.48
2018-08-22T02:06:15.127Z,20.43
2018-08-22T02:07:15.088Z,20.36
2018-08-22T02:09:07.907Z,20.43
2018-08-22T02:10:07.864Z,20.31
2018-08-22T02:12:00.678Z,20.25
2018-08-22T02:13:00.640Z,20.29
2018-08-22T02:14:53.493Z,20.29
2018-08-22T02:15:53.428Z,20.34
2018-08-22T02:17:46.238Z,20.21
2018-08-22T02:18:46.207Z,20.24
2018-08-22T02:20:39.038Z,20.25
2018-08-22T02:21:38.988Z,20.18
2018-08-22T02:23:31.804Z,20.22
2018-08-22T02:24:31.794Z,20.18
2018-08-22T02:26:24.609Z,20.11
2018-08-22T02:27:24.551Z,20.10
2018-08-22T02:29:17.363Z,20.04
2018-08-22T02:30:17.340Z,20.07
2018-08-22T02:32:10.174Z,20.00
2018-08-22T02:33:10.119Z,20.00
2018-08-22T02:35:02.935Z,19.99
2018-08-22T02:36:02.893Z,19.96
2018-08-22T02:37:55.711Z,19.88
2018-08-22T02:38:55.683Z,19.85
2018-08-22T02:40:48.498Z,19.85
2018-08-22T02:41:48.455Z,19.77
2018-08-22T02:43:41.289Z,19.64
2018-08-22T02:44:41.230Z,19.63
2018-08-22T02:46:34.065Z,19.66
2018-08-22T02:47:34.018Z,19.58
2018-08-22T02:49:26.820Z,19.55
2018-08-22T02:50:26.799Z,19.56
2018-08-22T02:52:19.622Z,19.51
2018-08-22T02:53:19.573Z,19.41
2018-08-22T02:55:12.410Z,19.51
2018-08-22T02:56:12.351Z,19.45
2018-08-22T02:58:05.161Z,19.40
2018-08-22T02:59:05.124Z,19.44
2018-08-22T03:00:57.953Z,19.45
2018-08-22T03:01:57.914Z,19.33
2018-08-22T03:03:50.721Z,19.34
2018-08-22T03:04:50.694Z,19.34
2018-08-22T03:06:43.514Z,19.36
2018-08-22T03:07:43.470Z,19.41
2018-08-22T03:09:36.279Z,19.30
2018-08-22T03:10:36.249Z,19.33
2018-08-22T03:12:29.070Z,19.27
2018-08-22T03:13:29.024Z,19.21
2018-08-22T03:15:21.833Z,19.21
2018-08-22T03:16:21.799Z,19.30
2018-08-22T03:18:14.627Z,19.18
2018-08-22T03:19:14.587Z,19.22
2018-08-22T03:21:07.394Z,19.24
2018-08-22T03:22:07.361Z,19.27
2018-08-22T03:24:00.193Z,19.33
2018-08-22T03:25:00.145Z,19.36
2018-08-22T03:26:52.961Z,19.26
2018-08-22T03:27:52.920Z,19.29
2018-08-22T03:29:45.750Z,19.27
2018-08-22T03:30:45.701Z,19.22
2018-08-22T03:32:38.537Z,19.26
2018-08-22T03:33:38.490Z,19.15
2018-08-22T03:35:31.321Z,19.16
2018-08-22T03:36:31.282Z,19.15
2018-08-22T03:38:24.097Z,19.15
2018-08-22T03:39:24.045Z,19.08
2018-08-22T03:41:16.893Z,19.08
2018-08-22T03:42:16.837Z,19.08
2018-08-22T03:44:09.650Z,19.00
2018-08-22T03:45:09.611Z,19.08
2018-08-22T03:47:02.438Z,19.07
2018-08-22T03:48:02.409Z,19.02
2018-08-22T03:49:55.220Z,19.07
2018-08-22T03:50:55.167Z,18.93
2018-08-22T03:52:48.001Z,19.07
2018-08-22T03:53:47.963Z,19.09
2018-08-22T03:55:41.288Z,18.89
2018-08-22T03:56:41.247Z,18.95
2018-08-22T03:58:34.053Z,18.95
2018-08-22T03:59:34.024Z,18.93
2018-08-22T04:01:26.842Z,18.92
2018-08-22T04:02:26.803Z,18.90
2018-08-22T04:04:19.634Z,18.88
2018-08-22T04:05:19.573Z,18.86
2018-08-22T04:07:12.391Z,18.92
2018-08-22T04:08:12.353Z,18.90
2018-08-22T04:10:05.180Z,18.92
2018-08-22T04:11:05.134Z,18.84
2018-08-22T04:12:57.959Z,18.83
2018-08-22T04:13:57.918Z,18.88
2018-08-22T04:15:50.754Z,18.90
2018-08-22T04:16:50.697Z,18.88
2018-08-22T04:18:44.002Z,18.88
2018-08-22T04:19:43.974Z,18.78
2018-08-22T04:21:36.794Z,18.84
2018-08-22T04:22:36.747Z,18.74
2018-08-22T04:24:29.583Z,18.78
2018-08-22T04:25:29.537Z,18.80
2018-08-22T04:27:22.359Z,18.83
2018-08-22T04:28:22.307Z,18.78
2018-08-22T04:30:15.124Z,18.73
2018-08-22T04:31:15.083Z,18.77
2018-08-22T04:33:07.891Z,18.84
2018-08-22T04:34:07.860Z,18.77
2018-08-22T04:36:00.680Z,18.80
2018-08-22T04:37:00.639Z,18.71
2018-08-22T04:38:53.446Z,18.66
2018-08-22T04:39:53.413Z,18.62
2018-08-22T04:41:46.246Z,18.62
2018-08-22T04:42:46.193Z,18.65
2018-08-22T04:44:39.008Z,18.56
2018-08-22T04:45:38.974Z,18.62
2018-08-22T04:47:32.295Z,18.65
2018-08-22T04:48:32.250Z,18.55
2018-08-22T04:50:25.080Z,18.62
2018-08-22T04:51:25.037Z,18.60
2018-08-22T04:53:17.858Z,18.62
2018-08-22T04:54:17.815Z,18.59
2018-08-22T04:56:11.166Z,18.60
2018-08-22T04:57:11.105Z,18.66
2018-08-22T04:59:03.925Z,18.63
2018-08-22T05:00:03.895Z,18.60
2018-08-22T05:01:56.723Z,18.60
2018-08-22T05:02:56.667Z,18.66
2018-08-22T05:04:49.474Z,18.62
2018-08-22T05:05:49.436Z,18.66
2018-08-22T05:07:42.265Z,18.56
2018-08-22T05:08:42.216Z,18.59
2018-08-22T05:10:35.048Z,18.56
2018-08-22T05:11:35.000Z,18.53
2018-08-22T05:13:27.824Z,18.56
2018-08-22T05:14:27.783Z,18.63
2018-08-22T05:16:20.615Z,18.56
2018-08-22T05:17:20.561Z,18.58
2018-08-22T05:19:13.377Z,18.52
2018-08-22T05:20:13.350Z,18.56
2018-08-22T05:22:06.176Z,18.56
2018-08-22T05:23:06.112Z,18.55
2018-08-22T05:24:58.936Z,18.52
2018-08-22T05:25:58.896Z,18.52
2018-08-22T05:27:51.732Z,18.45
2018-08-22T05:28:51.675Z,18.49
2018-08-22T05:30:44.487Z,18.47
2018-08-22T05:31:44.456Z,18.47
2018-08-22T05:33:37.286Z,18.45
2018-08-22T05:34:37.230Z,18.50
2018-08-22T05:36:30.046Z,18.52
2018-08-22T05:37:30.017Z,18.52
2018-08-22T05:39:22.837Z,18.50
2018-08-22T05:40:22.797Z,18.45
2018-08-22T05:42:15.612Z,18.56
2018-08-22T05:43:15.567Z,18.49
2018-08-22T05:45:08.395Z,18.52
2018-08-22T05:46:08.342Z,18.52
2018-08-22T05:48:01.190Z,18.55
2018-08-22T05:49:01.170Z,18.55
2018-08-22T05:50:53.953Z,18.60
2018-08-22T05:51:53.916Z,18.58
2018-08-22T05:53:46.735Z,18.58
2018-08-22T05:54:46.687Z,18.60
2018-08-22T05:56:39.505Z,18.62
2018-08-22T05:57:39.537Z,18.66
2018-08-22T05:59:32.297Z,18.68
2018-08-22T06:00:32.249Z,18.70
2018-08-22T06:02:25.054Z,18.75
2018-08-22T06:03:25.076Z,18.77
2018-08-22T06:05:17.858Z,18.81
2018-08-22T06:06:17.807Z,18.77
2018-08-22T06:08:10.631Z,18.90
2018-08-22T06:09:10.597Z,18.90
2018-08-22T06:11:03.417Z,18.93
2018-08-22T06:12:03.363Z,18.93
2018-08-22T06:13:56.164Z,18.95
2018-08-22T06:14:56.142Z,19.00
2018-08-22T06:16:48.963Z,19.07
2018-08-22T06:17:48.925Z,19.12
2018-08-22T06:19:41.748Z,19.22
2018-08-22T06:20:41.704Z,19.26
2018-08-22T06:22:34.513Z,19.36
2018-08-22T06:23:34.489Z,19.24
2018-08-22T06:25:27.321Z,19.30
2018-08-22T06:26:27.263Z,19.34
2018-08-22T06:28:20.069Z,19.37
2018-08-22T06:29:20.040Z,19.48
2018-08-22T06:31:12.863Z,19.54
2018-08-22T06:32:12.822Z,19.58
2018-08-22T06:34:05.628Z,19.66
2018-08-22T06:35:05.599Z,19.69
2018-08-22T06:36:58.438Z,19.73
2018-08-22T06:37:58.374Z,19.73
2018-08-22T06:39:51.189Z,19.84
2018-08-22T06:40:51.151Z,19.84
2018-08-22T06:42:43.985Z,20.00
2018-08-22T06:43:43.941Z,20.06
2018-08-22T06:45:36.764Z,20.02
2018-08-22T06:46:36.734Z,20.13
2018-08-22T06:48:29.544Z,20.21
2018-08-22T06:49:29.512Z,20.26
2018-08-22T06:51:22.320Z,20.39
2018-08-22T06:52:22.291Z,20.31
2018-08-22T06:54:15.121Z,20.44
2018-08-22T06:55:15.079Z,20.51
2018-08-22T06:57:07.948Z,20.60
2018-08-22T06:58:07.860Z,20.63
2018-08-22T07:00:00.670Z,20.67
2018-08-22T07:01:00.717Z,20.70
2018-08-22T07:02:53.465Z,20.75
2018-08-22T07:03:53.424Z,20.80
2018-08-22T07:05:46.251Z,20.96
2018-08-22T07:06:46.204Z,20.92
2018-08-22T07:08:39.032Z,21.02
2018-08-22T07:09:38.989Z,21.15
2018-08-22T07:11:31.810Z,21.05
2018-08-22T07:12:31.775Z,21.20
2018-08-22T07:14:24.595Z,21.20
2018-08-22T07:15:24.564Z,21.24
2018-08-22T07:17:17.365Z,21.20
2018-08-22T07:18:17.331Z,21.32
2018-08-22T07:20:10.172Z,21.30
2018-08-22T07:21:10.131Z,21.37
2018-08-22T07:23:02.962Z,21.42
2018-08-22T07:24:02.906Z,21.58
2018-08-22T07:25:55.721Z,21.54
2018-08-22T07:26:55.687Z,21.55
2018-08-22T07:28:48.532Z,21.61
2018-08-22T07:29:48.477Z,21.67
2018-08-22T07:31:41.285Z,21.69
2018-08-22T07:32:41.265Z,21.77
2018-08-22T07:34:34.095Z,21.82
2018-08-22T07:35:34.045Z,21.89
2018-08-22T07:37:26.857Z,21.95
2018-08-22T07:38:26.824Z,21.96
2018-08-22T07:40:19.650Z,21.96
2018-08-22T07:41:19.602Z,22.07
2018-08-22T07:43:12.435Z,22.25
2018-08-22T07:44:12.392Z,22.17
2018-08-22T07:46:05.222Z,22.26
2018-08-22T07:47:05.189Z,22.26
2018-08-22T07:48:57.996Z,22.33
2018-08-22T07:49:57.953Z,22.39
2018-08-22T07:51:50.786Z,22.35
2018-08-22T07:52:50.741Z,22.50
2018-08-22T07:54:43.556Z,22.53
2018-08-22T07:55:43.535Z,22.51
2018-08-22T07:57:36.362Z,22.68
2018-08-22T07:58:36.321Z,22.78
2018-08-22T08:00:29.141Z,22.73
2018-08-22T08:01:29.094Z,22.78
2018-08-22T08:03:21.924Z,22.88
2018-08-22T08:04:21.888Z,22.93
2018-08-22T08:06:14.713Z,23.03
2018-08-22T08:07:14.673Z,22.98
2018-08-22T08:09:07.490Z,23.20
2018-08-22T08:10:07.453Z,23.15
2018-08-22T08:12:00.288Z,23.25
2018-08-22T08:13:00.237Z,23.20
2018-08-22T08:14:53.052Z,23.34
2018-08-22T08:15:53.033Z,23.28
2018-08-22T08:17:45.847Z,23.37
2018-08-22T08:18:45.809Z,23.36
2018-08-22T08:20:39.132Z,23.39
2018-08-22T08:21:39.092Z,23.41
2018-08-22T08:23:31.973Z,23.55
2018-08-22T08:24:31.886Z,23.61
2018-08-22T08:26:24.712Z,23.69
2018-08-22T08:27:24.699Z,23.71
2018-08-22T08:29:17.562Z,23.73
2018-08-22T08:30:17.527Z,23.87
2018-08-22T08:32:10.345Z,23.92
2018-08-22T08:33:10.312Z,23.93
2018-08-22T08:35:03.154Z,24.03
2018-08-22T08:36:03.145Z,24.02
2018-08-22T08:37:55.934Z,24.01
2018-08-22T08:38:55.883Z,24.08
2018-08-22T08:40:48.699Z,24.13
2018-08-22T08:41:48.789Z,24.11
2018-08-22T08:43:41.497Z,24.16
2018-08-22T08:44:41.452Z,24.26
2018-08-22T08:46:34.293Z,24.29
2018-08-22T08:47:34.263Z,24.33
2018-08-22T08:49:27.107Z,24.39
2018-08-22T08:50:27.043Z,24.43
2018-08-22T08:52:20.435Z,24.48
2018-08-22T08:53:20.319Z,24.48
2018-08-22T08:55:13.654Z,24.58
2018-08-22T08:56:13.611Z,24.65
2018-08-22T08:58:06.429Z,24.58
2018-08-22T08:59:06.389Z,24.78
2018-08-22T09:00:59.225Z,24.93
2018-08-22T09:01:59.184Z,24.88
2018-08-22T09:03:52.547Z,24.93
2018-08-22T09:04:52.474Z,24.92
2018-08-22T09:06:45.791Z,25.03
2018-08-22T09:07:45.796Z,24.98
2018-08-22T09:09:38.594Z,25.14
2018-08-22T09:10:38.611Z,25.18
2018-08-22T09:12:31.356Z,25.28
2018-08-22T09:13:31.330Z,25.22
2018-08-22T09:15:24.178Z,25.38
2018-08-22T09:16:24.128Z,25.32
2018-08-22T09:18:16.934Z,25.33
2018-08-22T09:19:16.930Z,25.48
2018-08-22T09:21:09.773Z,25.60
2018-08-22T09:22:09.715Z,25.62
2018-08-22T09:24:02.598Z,25.66
2018-08-22T09:25:02.505Z,25.65
2018-08-22T09:26:55.331Z,25.60
2018-08-22T09:27:55.295Z,25.69
2018-08-22T09:29:48.134Z,25.72
2018-08-22T09:30:48.084Z,25.85
2018-08-22T09:32:40.900Z,25.88
2018-08-22T09:33:40.882Z,25.91
2018-08-22T09:35:33.753Z,26.03
2018-08-22T09:36:33.667Z,26.02
2018-08-22T09:38:26.986Z,26.07
2018-08-22T09:39:26.992Z,26.26
2018-08-22T09:41:20.305Z,26.26
2018-08-22T09:42:20.241Z,26.28
2018-08-22T09:44:13.100Z,26.44
2018-08-22T09:45:13.057Z,26.47
2018-08-22T09:47:05.891Z,26.44
2018-08-22T09:48:05.851Z,26.45
2018-08-22T09:49:58.687Z,26.56
2018-08-22T09:50:58.667Z,26.63
2018-08-22T09:52:51.475Z,26.60
2018-08-22T09:53:51.436Z,26.75
2018-08-22T09:55:44.285Z,26.83
2018-08-22T09:56:44.221Z,26.92
2018-08-22T09:58:37.137Z,27.05
2018-08-22T09:59:37.007Z,27.27
2018-08-22T10:01:29.857Z,27.49
2018-08-22T10:02:29.814Z,27.65
2018-08-22T10:04:22.632Z,28.54
2018-08-22T10:05:22.612Z,28.96
2018-08-22T10:07:15.454Z,29.63
2018-08-22T10:08:15.407Z,29.84
2018-08-22T10:10:08.248Z,30.39
2018-08-22T10:11:08.226Z,30.63
2018-08-22T10:13:01.088Z,31.27
2018-08-22T10:14:01.022Z,31.24
2018-08-22T10:15:53.859Z,31.34
2018-08-22T10:16:53.855Z,31.65
2018-08-22T10:18:46.715Z,32.00
2018-08-22T10:19:46.735Z,31.77
2018-08-22T10:21:39.496Z,32.03
2018-08-22T10:22:39.463Z,32.43
2018-08-22T10:24:32.290Z,33.05
2018-08-22T10:25:32.268Z,33.27
2018-08-22T10:27:25.221Z,33.59
2018-08-22T10:28:25.088Z,33.42
2018-08-22T10:30:17.924Z,33.69
2018-08-22T10:31:17.912Z,33.47
2018-08-22T10:33:10.763Z,33.68
2018-08-22T10:34:10.718Z,33.90
2018-08-22T10:36:03.558Z,34.17
2018-08-22T10:37:03.540Z,34.25
2018-08-22T10:38:56.387Z,34.08
2018-08-22T10:39:56.354Z,34.23
2018-08-22T10:41:49.200Z,34.55
2018-08-22T10:42:49.172Z,34.33
2018-08-22T10:44:42.055Z,34.48
2018-08-22T10:45:42.010Z,34.58
2018-08-22T10:47:34.868Z,34.06
2018-08-22T10:48:34.834Z,34.29
2018-08-22T10:50:27.705Z,34.93
2018-08-22T10:51:27.654Z,35.07
2018-08-22T10:53:20.520Z,35.45
2018-08-22T10:54:20.485Z,35.23
2018-08-22T10:56:13.328Z,35.10
2018-08-22T10:57:13.305Z,35.19
2018-08-22T10:59:06.159Z,35.36
2018-08-22T11:00:06.129Z,35.45
2018-08-22T11:01:58.977Z,35.61
2018-08-22T11:02:58.949Z,35.66
2018-08-22T11:04:51.804Z,35.66
2018-08-22T11:05:51.764Z,35.49
2018-08-22T11:07:44.613Z,35.61
2018-08-22T11:08:44.578Z,35.61
2018-08-22T11:10:37.438Z,35.63
2018-08-22T11:11:37.405Z,35.48
2018-08-22T11:13:30.272Z,35.74
2018-08-22T11:14:30.236Z,36.00
2018-08-22T11:16:23.587Z,35.82
2018-08-22T11:17:23.565Z,36.08
2018-08-22T11:19:16.401Z,36.12
2018-08-22T11:20:16.392Z,35.97
2018-08-22T11:22:09.721Z,36.05
2018-08-22T11:23:09.705Z,36.25
2018-08-22T11:25:02.551Z,36.51
2018-08-22T11:26:02.519Z,36.36
2018-08-22T11:27:55.864Z,36.95
2018-08-22T11:28:55.871Z,36.72
2018-08-22T11:30:49.204Z,36.79
2018-08-22T11:31:49.158Z,36.89
2018-08-22T11:33:42.497Z,36.89
2018-08-22T11:34:42.487Z,36.93
2018-08-22T11:36:35.327Z,36.76
2018-08-22T11:37:35.296Z,36.65
2018-08-22T11:39:28.156Z,35.85
2018-08-22T11:40:28.122Z,35.86
2018-08-22T11:42:21.489Z,36.09
2018-08-22T11:43:21.467Z,36.16
2018-08-22T11:45:14.305Z,36.23
2018-08-22T11:46:14.261Z,36.39
2018-08-22T11:48:07.597Z,36.77
2018-08-22T11:49:07.616Z,36.36
2018-08-22T11:51:00.932Z,36.20
2018-08-22T11:52:00.900Z,36.35
2018-08-22T11:53:54.236Z,36.70
2018-08-22T11:54:54.241Z,36.68
2018-08-22T11:56:47.066Z,36.80
2018-08-22T11:57:47.063Z,36.95
2018-08-22T11:59:39.871Z,36.72
2018-08-22T12:00:39.848Z,36.17
2018-08-22T12:02:32.711Z,36.39
2018-08-22T12:03:32.677Z,36.55
2018-08-22T12:05:26.014Z,36.46
2018-08-22T12:06:25.982Z,35.80
2018-08-22T12:08:19.337Z,35.98
2018-08-22T12:09:19.315Z,36.23
2018-08-22T12:11:12.151Z,36.14
2018-08-22T12:12:12.132Z,36.40
2018-08-22T12:14:05.483Z,36.47
2018-08-22T12:15:05.447Z,35.82
2018-08-22T12:16:58.293Z,36.07
2018-08-22T12:17:58.253Z,36.00
2018-08-22T12:19:51.594Z,36.17
2018-08-22T12:20:51.567Z,36.28
2018-08-22T12:22:44.917Z,36.68
2018-08-22T12:23:44.909Z,36.57
2018-08-22T12:25:37.722Z,36.17
2018-08-22T12:26:37.708Z,36.23
2018-08-22T12:28:30.579Z,36.49
2018-08-22T12:29:30.513Z,36.54
2018-08-22T12:31:23.868Z,36.17
2018-08-22T12:32:23.848Z,36.08
2018-08-22T12:34:16.712Z,35.95
2018-08-22T12:35:16.675Z,36.08
2018-08-22T12:37:10.014Z,36.17
2018-08-22T12:38:09.992Z,36.28
2018-08-22T12:40:03.340Z,36.35
2018-08-22T12:41:03.309Z,36.37
2018-08-22T12:42:56.644Z,35.95
2018-08-22T12:43:56.616Z,36.05
2018-08-22T12:45:49.475Z,36.39
2018-08-22T12:46:49.444Z,36.43
2018-08-22T12:48:42.792Z,36.14
2018-08-22T12:49:42.744Z,35.37
2018-08-22T12:51:35.580Z,35.44
2018-08-22T12:52:35.567Z,35.83
2018-08-22T12:54:28.906Z,35.64
2018-08-22T12:55:28.874Z,35.80
2018-08-22T12:57:21.711Z,36.08
2018-08-22T12:58:21.691Z,36.18
2018-08-22T13:00:14.554Z,36.16
2018-08-22T13:01:14.521Z,36.14
2018-08-22T13:03:07.836Z,36.54
2018-08-22T13:04:07.828Z,36.58
2018-08-22T13:06:01.251Z,36.18
2018-08-22T13:07:01.134Z,36.25
2018-08-22T13:08:53.976Z,36.37
2018-08-22T13:09:53.951Z,36.36
2018-08-22T13:11:46.795Z,36.54
2018-08-22T13:12:46.765Z,36.54
2018-08-22T13:14:40.134Z,36.61
2018-08-22T13:15:40.085Z,36.62
2018-08-22T13:17:32.929Z,36.80
2018-08-22T13:18:32.909Z,36.72
2018-08-22T13:20:25.751Z,36.39
2018-08-22T13:21:25.719Z,35.80
2018-08-22T13:23:18.580Z,35.82
2018-08-22T13:24:18.540Z,36.14
2018-08-22T13:26:11.385Z,35.58
2018-08-22T13:27:11.350Z,35.64
2018-08-22T13:29:04.194Z,34.60
2018-08-22T13:30:04.186Z,34.83
2018-08-22T13:31:57.021Z,35.00
2018-08-22T13:32:57.019Z,35.29
2018-08-22T13:34:50.342Z,35.34
2018-08-22T13:35:50.309Z,34.96
2018-08-22T13:37:43.141Z,34.36
2018-08-22T13:38:43.129Z,34.61
2018-08-22T13:40:36.486Z,34.58
2018-08-22T13:41:36.456Z,34.57
2018-08-22T13:43:29.301Z,34.89
2018-08-22T13:44:29.260Z,34.70
2018-08-22T13:46:22.144Z,35.22
2018-08-22T13:47:22.085Z,35.14
2018-08-22T13:49:15.413Z,35.12
2018-08-22T13:50:15.388Z,35.37
2018-08-22T13:52:08.737Z,35.61
2018-08-22T13:53:08.719Z,35.61
2018-08-22T13:55:01.560Z,35.34
2018-08-22T13:56:01.564Z,35.15
2018-08-22T13:57:54.380Z,35.53
2018-08-22T13:58:54.338Z,34.86
2018-08-22T14:00:47.182Z,35.00
2018-08-22T14:01:47.179Z,35.17
2018-08-22T14:03:40.017Z,35.46
2018-08-22T14:04:39.975Z,35.27
2018-08-22T14:06:32.826Z,35.30
2018-08-22T14:07:32.778Z,35.17
2018-08-22T14:09:25.618Z,34.58
2018-08-22T14:10:25.600Z,34.77
2018-08-22T14:12:18.953Z,35.07
2018-08-22T14:13:18.920Z,34.75
2018-08-22T14:15:12.249Z,34.58
2018-08-22T14:16:12.270Z,34.75
2018-08-22T14:18:05.563Z,34.93
2018-08-22T14:19:05.533Z,35.26
2018-08-22T14:20:59.861Z,35.46
2018-08-22T14:21:59.868Z,35.55
2018-08-22T14:23:53.172Z,35.66
2018-08-22T14:24:53.140Z,35.51
2018-08-22T14:26:45.977Z,35.34
2018-08-22T14:27:45.954Z,35.24
2018-08-22T14:29:38.792Z,35.05
2018-08-22T14:30:38.763Z,35.30
2018-08-22T14:32:31.634Z,34.78
2018-08-22T14:33:31.643Z,34.54
2018-08-22T14:35:24.428Z,34.52
2018-08-22T14:36:24.405Z,34.50
2018-08-22T14:38:17.753Z,34.55
2018-08-22T14:39:17.749Z,34.66
2018-08-22T14:41:10.604Z,34.48
2018-08-22T14:42:10.589Z,34.66
2018-08-22T14:44:03.943Z,34.13
2018-08-22T14:45:03.954Z,33.90
2018-08-22T14:46:57.223Z,33.90
2018-08-22T14:47:57.200Z,33.84
2018-08-22T14:49:50.045Z,34.23
2018-08-22T14:50:50.009Z,34.33
2018-08-22T14:52:42.857Z,34.55
2018-08-22T14:53:42.818Z,34.11
2018-08-22T14:55:35.695Z,33.62
2018-08-22T14:56:35.716Z,33.68
2018-08-22T14:58:29.006Z,33.69
2018-08-22T14:59:28.952Z,34.05
2018-08-22T15:01:21.795Z,34.32
2018-08-22T15:02:21.812Z,34.36
2018-08-22T15:04:14.675Z,34.38
2018-08-22T15:05:14.680Z,34.43
2018-08-22T15:07:07.443Z,33.90
2018-08-22T15:08:07.422Z,33.99
2018-08-22T15:10:00.772Z,34.06
2018-08-22T15:11:00.743Z,33.83
2018-08-22T15:12:54.097Z,33.49
2018-08-22T15:13:54.039Z,33.37
2018-08-22T15:15:46.895Z,33.84
2018-08-22T15:16:46.850Z,33.77
2018-08-22T15:18:39.681Z,33.62
2018-08-22T15:19:39.665Z,33.74
2018-08-22T15:21:32.555Z,34.08
2018-08-22T15:22:32.509Z,33.99
2018-08-22T15:24:25.297Z,34.06
2018-08-22T15:25:25.335Z,33.98
2018-08-22T15:27:18.124Z,33.47
2018-08-22T15:28:18.099Z,33.73
2018-08-22T15:30:11.560Z,34.01
2018-08-22T15:31:11.438Z,33.99
2018-08-22T15:33:04.247Z,33.47
2018-08-22T15:34:04.325Z,33.42
2018-08-22T15:35:57.554Z,33.47
2018-08-22T15:36:57.509Z,33.43
2018-08-22T15:38:50.877Z,33.02
2018-08-22T15:39:50.859Z,33.09
2018-08-22T15:41:43.722Z,33.37
2018-08-22T15:42:43.640Z,33.23
2018-08-22T15:44:36.479Z,33.22
2018-08-22T15:45:36.463Z,33.14
2018-08-22T15:47:29.812Z,33.39
2018-08-22T15:48:29.776Z,33.40
2018-08-22T15:50:23.090Z,33.32
2018-08-22T15:51:23.083Z,33.17
2018-08-22T15:53:16.509Z,33.27
2018-08-22T15:54:16.363Z,33.17
2018-08-22T15:56:09.194Z,32.93
2018-08-22T15:57:09.172Z,32.77
2018-08-22T15:59:02.535Z,32.85
2018-08-22T16:00:02.480Z,32.96
2018-08-22T16:01:55.844Z,32.18
2018-08-22T16:02:55.781Z,32.36
2018-08-22T16:04:48.618Z,32.03
2018-08-22T16:05:48.595Z,31.94
2018-08-22T16:07:41.935Z,32.30
2018-08-22T16:08:41.894Z,32.16
2018-08-22T16:10:35.215Z,31.93
2018-08-22T16:11:35.186Z,31.99
2018-08-22T16:13:28.519Z,32.12
2018-08-22T16:14:28.532Z,32.15
2018-08-22T16:16:21.840Z,32.11
2018-08-22T16:17:21.786Z,32.03
2018-08-22T16:19:15.129Z,32.09
2018-08-22T16:20:15.101Z,32.14
2018-08-22T16:22:08.416Z,32.00
2018-08-22T16:23:08.416Z,32.00
2018-08-22T16:25:01.727Z,31.52
2018-08-22T16:26:01.707Z,31.51
2018-08-22T16:27:55.018Z,31.54
2018-08-22T16:28:55.014Z,31.52
2018-08-22T16:30:56.858Z,31.33
2018-08-22T16:31:47.795Z,31.36
2018-08-22T16:33:41.177Z,31.33
2018-08-22T16:34:41.101Z,31.29
2018-08-22T16:36:34.422Z,31.39
2018-08-22T16:37:34.413Z,31.46
2018-08-22T16:39:27.741Z,31.49
2018-08-22T16:40:27.711Z,31.24
2018-08-22T16:42:21.583Z,31.36
2018-08-22T16:43:21.525Z,31.21
2018-08-22T16:45:14.357Z,31.02
2018-08-22T16:46:14.303Z,30.94
2018-08-22T16:48:07.124Z,30.97
2018-08-22T16:49:07.104Z,30.99
2018-08-22T16:50:59.932Z,30.63
2018-08-22T16:51:59.919Z,30.50
2018-08-22T16:53:52.738Z,30.53
2018-08-22T16:54:52.709Z,30.57
2018-08-22T16:56:46.048Z,30.51
2018-08-22T16:57:46.013Z,30.61
2018-08-22T16:59:39.327Z,30.50
2018-08-22T17:00:39.306Z,30.54
2018-08-22T17:02:32.642Z,30.37
2018-08-22T17:03:32.604Z,30.39
2018-08-22T17:05:25.437Z,30.35
2018-08-22T17:06:25.422Z,30.53
2018-08-22T17:08:19.316Z,30.39
2018-08-22T17:09:18.697Z,30.37
2018-08-22T17:11:12.062Z,30.21
2018-08-22T17:12:12.027Z,30.25
2018-08-22T17:14:05.326Z,30.19
2018-08-22T17:15:05.301Z,30.37
2018-08-22T17:16:58.135Z,30.39
2018-08-22T17:17:58.102Z,30.37
2018-08-22T17:19:50.924Z,30.09
2018-08-22T17:20:50.893Z,30.08
2018-08-22T17:22:44.232Z,29.87
2018-08-22T17:23:44.188Z,29.76
2018-08-22T17:25:37.039Z,29.69
2018-08-22T17:26:37.002Z,29.66
2018-08-22T17:28:30.309Z,29.66
2018-08-22T17:29:30.455Z,29.60
2018-08-22T17:31:23.613Z,29.50
2018-08-22T17:32:23.585Z,29.49
2018-08-22T17:34:16.409Z,29.49
2018-08-22T17:35:16.382Z,29.53
2018-08-22T17:37:09.719Z,29.39
2018-08-22T17:38:09.679Z,29.42
2018-08-22T17:40:02.504Z,29.50
2018-08-22T17:41:02.479Z,29.49
2018-08-22T17:42:55.844Z,29.24
2018-08-22T17:43:55.774Z,29.31
2018-08-22T17:45:48.625Z,29.27
2018-08-22T17:46:48.583Z,29.24
2018-08-22T17:48:41.439Z,29.23
2018-08-22T17:49:41.365Z,29.20
2018-08-22T17:51:34.233Z,29.17
2018-08-22T17:52:34.194Z,29.12
2018-08-22T17:54:27.030Z,28.97
2018-08-22T17:55:27.037Z,28.98
2018-08-22T17:57:19.849Z,28.91
2018-08-22T17:58:19.829Z,28.97
2018-08-22T18:00:12.635Z,28.84
2018-08-22T18:01:12.600Z,28.72
2018-08-22T18:03:05.449Z,28.70
2018-08-22T18:04:05.415Z,28.52
2018-08-22T18:05:58.746Z,28.47
2018-08-22T18:06:58.719Z,28.49
2018-08-22T18:08:52.071Z,28.41
2018-08-22T18:09:52.025Z,28.45
2018-08-22T18:11:45.365Z,28.27
2018-08-22T18:12:45.308Z,28.32
2018-08-22T18:14:38.145Z,28.26
2018-08-22T18:15:38.122Z,28.23
2018-08-22T18:17:30.956Z,28.11
2018-08-22T18:18:30.910Z,28.05
2018-08-22T18:20:23.728Z,27.98
2018-08-22T18:21:23.697Z,28.00
2018-08-22T18:23:16.575Z,27.95
2018-08-22T18:24:16.504Z,27.87
2018-08-22T18:26:09.335Z,27.78
2018-08-22T18:27:09.297Z,27.85
2018-08-22T18:29:02.122Z,27.83
2018-08-22T18:30:02.086Z,27.73
2018-08-22T18:31:55.415Z,27.71
2018-08-22T18:32:55.397Z,27.65